Time;durP1;ratioP1;P1;durP2;ratioP2;P2;SDS_P1;SDS_P2;PMS_P1;PMS_P2;Temp;Humidity;BMP_temperature;BMP_pressure;BME280_temperature;BME280_humidity;BME280_pressure;Samples;Min_cycle;Max_cycle;Signal;HPM_P1;HPM_P2
2021/11/28 00:00:07;;;;;;;8.30;4.70;;;;;;;10.50;71.56;99047.31;5029183;28;20482;-69
2021/11/28 00:02:35;;;;;;;6.38;4.50;;;;;;;10.52;71.43;99053.25;5018198;28;20096;-60
2021/11/28 00:05:04;;;;;;;12.23;5.13;;;;;;;10.49;71.54;99050.91;5009340;28;20058;-61
2021/11/28 00:15:11;;;;;;;8.65;4.70;;;;;;;10.52;71.53;99027.03;5009529;28;20061;-61
2021/11/28 00:17:37;;;;;;;8.20;4.78;;;;;;;10.50;71.81;99020.25;5009594;28;20254;-60
2021/11/28 00:20:08;;;;;;;7.75;5.05;;;;;;;10.50;71.71;99026.34;5016558;28;20054;-61
2021/11/28 00:22:38;;;;;;;6.07;4.82;;;;;;;10.47;71.72;99023.97;5028856;28;20049;-70
2021/11/28 00:25:08;;;;;;;8.00;5.07;;;;;;;10.50;71.79;99022.88;5029092;28;20046;-61
2021/11/28 00:27:36;;;;;;;7.07;5.53;;;;;;;10.50;71.75;99026.34;5017020;28;20119;-61
2021/11/28 00:30:05;;;;;;;8.25;5.40;;;;;;;10.48;71.83;99015.13;5029184;28;20115;-61
2021/11/28 00:32:32;;;;;;;8.38;5.38;;;;;;;10.49;71.72;99013.31;5028940;28;20119;-61
2021/11/28 00:34:59;;;;;;;8.15;5.10;;;;;;;10.47;71.88;99012.66;5024985;28;20050;-61
2021/11/28 00:37:26;;;;;;;8.30;5.43;;;;;;;10.47;71.87;99012.66;5009123;28;20679;-61
2021/11/28 00:39:52;;;;;;;7.70;5.45;;;;;;;10.42;72.21;99006.00;5009279;28;20057;-61
2021/11/28 00:42:19;;;;;;;8.70;6.30;;;;;;;10.41;72.19;99003.50;5009264;28;20054;-61
2021/11/28 00:44:45;;;;;;;10.00;6.18;;;;;;;10.41;72.02;99004.34;5008984;28;20506;-71
2021/11/28 00:47:12;;;;;;;10.32;6.47;;;;;;;10.39;72.26;99003.63;5008946;28;20100;-61
2021/11/28 00:49:49;;;;;;;9.57;6.00;;;;;;;10.34;72.38;98997.91;5008871;28;20046;-61
2021/11/28 00:52:15;;;;;;;8.57;6.38;;;;;;;10.34;72.39;98991.84;5008924;28;20417;-61
2021/11/28 00:54:42;;;;;;;9.68;6.35;;;;;;;10.35;72.50;98975.13;5009102;28;20049;-61
2021/11/28 00:57:09;;;;;;;11.35;5.78;;;;;;;10.33;72.44;98977.88;5009028;28;20445;-61
2021/11/28 00:59:36;;;;;;;8.00;6.22;;;;;;;10.29;72.67;98963.38;5016600;28;20049;-61
2021/11/28 01:02:03;;;;;;;9.13;6.55;;;;;;;10.29;72.54;98966.00;5030315;28;20049;-61
2021/11/28 01:04:29;;;;;;;9.43;6.60;;;;;;;10.29;72.65;98973.88;5032091;28;20045;-61
2021/11/28 01:06:56;;;;;;;10.15;6.25;;;;;;;10.30;72.59;98981.59;5026754;28;20155;-62
2021/11/28 01:09:24;;;;;;;9.27;7.10;;;;;;;10.32;72.70;98984.09;5032503;28;20049;-61
2021/11/28 01:11:51;;;;;;;10.55;6.80;;;;;;;10.34;72.29;98991.84;5032429;28;20068;-61
2021/11/28 01:14:17;;;;;;;11.23;6.53;;;;;;;10.35;72.40;99001.34;5032329;28;20049;-61
2021/11/28 01:16:44;;;;;;;7.60;6.00;;;;;;;10.38;72.54;99003.75;5032231;28;20107;-61
2021/11/28 01:19:11;;;;;;;8.35;6.22;;;;;;;10.36;72.34;99006.53;5031797;28;20091;-61
2021/11/28 01:21:52;;;;;;;9.50;6.60;;;;;;;10.35;72.39;98999.56;5032464;28;20050;-61
2021/11/28 01:24:19;;;;;;;9.52;6.97;;;;;;;10.37;72.50;98997.66;5032311;28;20057;-61
2021/11/28 01:26:46;;;;;;;11.98;6.97;;;;;;;10.38;72.38;98993.28;5013230;28;20054;-61
2021/11/28 01:29:13;;;;;;;10.27;6.50;;;;;;;10.37;72.59;98999.47;5012292;28;20042;-61
2021/11/28 01:31:40;;;;;;;8.75;6.10;;;;;;;10.35;72.73;98996.09;5012396;28;20069;-61
2021/11/28 01:34:07;;;;;;;8.32;6.22;;;;;;;10.35;72.81;98989.09;5012190;28;20046;-61
2021/11/28 01:36:35;;;;;;;9.85;6.97;;;;;;;10.33;72.64;98980.50;5012134;28;20045;-61
2021/11/28 01:39:04;;;;;;;10.85;6.93;;;;;;;10.32;72.68;98970.97;5012382;28;20120;-61
2021/11/28 01:41:31;;;;;;;7.97;6.75;;;;;;;10.31;72.81;98974.59;5054377;28;20053;-61
2021/11/28 01:43:59;;;;;;;9.85;6.38;;;;;;;10.32;72.73;98973.59;5031893;28;20053;-62
2021/11/28 01:46:26;;;;;;;9.30;6.85;;;;;;;10.32;72.79;98970.16;5031714;28;20123;-61
2021/11/28 01:48:54;;;;;;;9.68;6.85;;;;;;;10.29;72.92;98966.81;5031109;28;20042;-61
2021/11/28 01:51:21;;;;;;;8.25;6.57;;;;;;;10.29;73.09;98972.06;5031778;28;20042;-61
2021/11/28 01:53:51;;;;;;;8.20;5.65;;;;;;;10.28;73.12;98974.81;5031606;28;20234;-62
2021/11/28 01:56:19;;;;;;;8.07;5.82;;;;;;;10.27;73.08;98979.25;5031640;28;20119;-61
2021/11/28 01:58:46;;;;;;;7.70;5.78;;;;;;;10.29;72.98;98986.97;5013935;28;20457;-61
2021/11/28 02:01:15;;;;;;;8.40;5.88;;;;;;;10.30;73.02;98986.84;5011791;28;20108;-61
2021/11/28 02:03:43;;;;;;;6.10;5.28;;;;;;;10.30;72.97;98992.09;5011350;28;20054;-66
2021/11/28 02:06:13;;;;;;;8.80;6.00;;;;;;;10.28;73.04;98985.31;5011595;28;20054;-61
2021/11/28 02:08:41;;;;;;;8.48;5.57;;;;;;;10.25;73.19;98969.84;5011529;28;20100;-61
2021/11/28 02:11:08;;;;;;;8.30;5.60;;;;;;;10.24;73.12;98970.81;5011872;28;20042;-60
2021/11/28 02:13:35;;;;;;;6.43;5.22;;;;;;;10.22;73.17;98963.06;5011015;28;20061;-62
2021/11/28 02:16:03;;;;;;;7.35;4.57;;;;;;;10.20;73.09;98962.38;5011626;28;20046;-61
2021/11/28 02:18:30;;;;;;;6.53;4.72;;;;;;;10.17;73.02;98946.91;5010931;28;20056;-61
2021/11/28 02:21:00;;;;;;;5.88;4.30;;;;;;;10.15;73.14;98940.13;4991819;28;20050;-60
2021/11/28 02:23:27;;;;;;;6.75;4.60;;;;;;;10.08;73.09;98924.91;4991611;28;20054;-61
2021/11/28 02:26:00;;;;;;;5.15;4.45;;;;;;;10.13;73.05;98935.00;4991879;28;20046;-61
2021/11/28 02:28:29;;;;;;;7.45;4.60;;;;;;;10.09;73.51;98944.06;4991538;28;20050;-61
2021/11/28 02:30:55;;;;;;;4.38;3.95;;;;;;;10.10;72.89;98953.59;5001004;28;20127;-61
2021/11/28 02:33:22;;;;;;;6.70;4.18;;;;;;;10.07;73.11;98965.19;5010800;28;20054;-61
2021/11/28 02:35:49;;;;;;;5.50;4.00;;;;;;;10.06;72.88;98963.50;5011181;28;20532;-61
2021/11/28 02:38:16;;;;;;;5.63;3.95;;;;;;;10.01;72.99;98967.50;5010977;28;20046;-61
2021/11/28 02:40:43;;;;;;;6.20;4.05;;;;;;;10.01;73.21;98968.31;5011280;28;20506;-61
2021/11/28 02:43:10;;;;;;;5.88;4.80;;;;;;;9.99;73.13;98949.25;5011006;28;20092;-61
2021/11/28 02:45:38;;;;;;;6.88;4.50;;;;;;;9.98;73.01;98947.63;5010964;28;20045;-61
2021/11/28 02:48:10;;;;;;;5.45;4.00;;;;;;;9.97;72.92;98946.75;4995977;28;20046;-61
2021/11/28 02:50:37;;;;;;;6.13;4.03;;;;;;;9.93;72.83;98940.13;4991442;28;20047;-61
2021/11/28 02:53:06;;;;;;;4.75;3.75;;;;;;;9.90;72.93;98943.00;4991633;28;20050;-61
2021/11/28 02:55:39;;;;;;;5.43;3.50;;;;;;;9.87;72.97;98945.88;4991367;28;20505;-62
2021/11/28 02:58:08;;;;;;;3.60;3.30;;;;;;;9.82;73.00;98955.91;4991771;28;20589;-61
2021/11/28 03:00:37;;;;;;;5.53;3.55;;;;;;;9.78;72.98;98954.50;4990988;28;20099;-61
2021/11/28 03:03:04;;;;;;;8.07;4.20;;;;;;;9.76;72.77;98956.41;4990117;28;20080;-61
2021/11/28 03:05:31;;;;;;;3.97;3.58;;;;;;;9.76;72.57;98962.50;4990751;28;20077;-62
2021/11/28 03:07:58;;;;;;;4.97;3.05;;;;;;;9.72;72.46;98955.81;4991012;28;20112;-61
2021/11/28 03:10:52;;;;;;;4.28;3.50;;;;;;;9.71;72.19;98948.91;4991345;28;20074;-74
2021/11/28 03:13:25;;;;;;;4.57;2.70;;;;;;;9.75;72.06;98939.00;4991195;28;20105;-61
2021/11/28 03:15:54;;;;;;;3.60;2.72;;;;;;;9.75;72.10;98936.41;4990827;28;20526;-61
2021/11/28 03:18:24;;;;;;;3.97;3.00;;;;;;;9.75;72.08;98944.25;4990442;28;20047;-61
2021/11/28 03:20:53;;;;;;;3.95;2.58;;;;;;;9.70;72.02;98947.28;5009115;28;20090;-61
2021/11/28 03:23:23;;;;;;;3.78;2.83;;;;;;;9.69;72.00;98935.13;5010282;28;20052;-61
2021/11/28 03:25:50;;;;;;;3.42;2.75;;;;;;;9.69;71.92;98931.66;5009874;28;20112;-73
2021/11/28 03:28:19;;;;;;;4.22;2.88;;;;;;;9.70;71.86;98931.56;5010390;28;20054;-62
2021/11/28 03:30:47;;;;;;;3.42;2.92;;;;;;;9.69;71.98;98924.66;5009816;28;20049;-61
2021/11/28 03:33:14;;;;;;;4.32;2.72;;;;;;;9.69;71.98;98923.81;5009527;28;20569;-73
2021/11/28 03:35:41;;;;;;;4.10;3.00;;;;;;;9.67;71.97;98928.34;5009873;28;20045;-61
2021/11/28 03:38:09;;;;;;;3.03;2.60;;;;;;;9.66;72.00;98940.59;5013485;28;20486;-63
2021/11/28 03:40:38;;;;;;;4.30;2.63;;;;;;;9.67;72.06;98941.44;5013272;28;20042;-62
2021/11/28 03:43:05;;;;;;;3.88;3.35;;;;;;;9.64;71.89;98950.38;5013358;28;20046;-61
2021/11/28 03:45:33;;;;;;;4.13;3.20;;;;;;;9.63;72.03;98957.41;5013091;28;20100;-62
2021/11/28 03:47:59;;;;;;;4.50;2.88;;;;;;;9.63;71.86;98956.56;5013293;28;20173;-62
2021/11/28 03:50:26;;;;;;;4.43;3.15;;;;;;;9.62;72.00;98952.28;5013140;28;20108;-61
2021/11/28 03:52:53;;;;;;;3.78;3.20;;;;;;;9.61;72.09;98955.84;5012697;28;20124;-61
2021/11/28 03:55:22;;;;;;;3.72;3.17;;;;;;;9.63;71.65;98957.41;5013032;28;20054;-61
2021/11/28 03:57:49;;;;;;;6.38;3.70;;;;;;;9.62;71.79;98947.06;5012930;28;20080;-62
2021/11/28 04:00:16;;;;;;;3.90;3.28;;;;;;;9.62;71.73;98950.53;5013042;28;20046;-61
2021/11/28 04:02:42;;;;;;;4.38;3.97;;;;;;;9.60;71.91;98947.19;5015316;28;20478;-61
2021/11/28 04:05:10;;;;;;;5.15;3.40;;;;;;;9.63;72.01;98946.09;5027714;28;20119;-62
2021/11/28 04:07:37;;;;;;;3.97;3.47;;;;;;;9.63;72.02;98944.31;5029048;28;20049;-61
2021/11/28 04:10:06;;;;;;;5.28;3.45;;;;;;;9.65;72.13;98949.44;5022529;28;20509;-64
2021/11/28 04:12:32;;;;;;;4.63;3.50;;;;;;;9.64;72.02;98953.81;5009378;28;20116;-61
2021/11/28 04:15:00;;;;;;;4.55;3.53;;;;;;;9.65;72.14;98959.91;5009695;28;20479;-61
2021/11/28 04:17:28;;;;;;;4.88;3.28;;;;;;;9.66;72.02;98955.50;5009614;28;20104;-62
2021/11/28 04:19:55;;;;;;;5.93;3.67;;;;;;;9.67;72.06;98955.38;5009248;28;20089;-61
2021/11/28 04:22:22;;;;;;;4.63;3.65;;;;;;;9.68;72.06;98936.06;5009372;28;20126;-61
2021/11/28 04:24:49;;;;;;;6.22;3.58;;;;;;;9.65;72.18;98923.25;5009267;28;20054;-69
2021/11/28 04:27:16;;;;;;;7.32;3.60;;;;;;;9.62;72.31;98920.88;5009182;28;20050;-62
2021/11/28 04:29:43;;;;;;;3.60;3.30;;;;;;;9.57;72.44;98918.66;5009288;28;20054;-61
2021/11/28 04:32:09;;;;;;;5.63;4.03;;;;;;;9.53;72.54;98919.81;5009288;28;20111;-62
2021/11/28 04:34:36;;;;;;;5.30;3.25;;;;;;;9.44;72.50;98924.03;5009164;28;20046;-66
2021/11/28 04:37:03;;;;;;;4.18;3.70;;;;;;;9.42;72.42;98915.47;5012631;28;20077;-66
2021/11/28 04:39:30;;;;;;;3.92;3.38;;;;;;;9.39;72.46;98917.50;5013240;28;20564;-61
2021/11/28 04:41:56;;;;;;;3.78;3.10;;;;;;;9.35;72.49;98921.34;5013206;28;20104;-61
2021/11/28 04:44:23;;;;;;;3.63;3.25;;;;;;;9.32;72.28;98904.91;5012785;28;20112;-62
2021/11/28 04:46:50;;;;;;;4.55;3.03;;;;;;;9.29;72.21;98918.28;5013251;28;20057;-61
2021/11/28 04:49:17;;;;;;;4.82;3.40;;;;;;;9.28;72.27;98911.38;5013492;28;20050;-63
2021/11/28 04:51:44;;;;;;;5.72;3.33;;;;;;;9.26;72.29;98908.03;5013245;28;20050;-61
2021/11/28 04:54:12;;;;;;;3.90;3.50;;;;;;;9.25;72.22;98910.78;5013001;28;20073;-61
2021/11/28 04:56:39;;;;;;;3.75;3.33;;;;;;;9.22;72.23;98916.25;5013314;28;20140;-61
2021/11/28 04:59:06;;;;;;;3.92;3.03;;;;;;;9.17;72.14;98907.94;5012933;28;20506;-62
2021/11/28 05:01:32;;;;;;;3.97;2.90;;;;;;;9.13;71.98;98907.38;5012681;28;20057;-61
2021/11/28 05:03:59;;;;;;;3.25;2.53;;;;;;;9.10;72.13;98918.91;5012557;28;20520;-61
2021/11/28 05:06:27;;;;;;;3.60;2.65;;;;;;;9.07;71.82;98913.91;5012862;28;20081;-62
2021/11/28 05:08:54;;;;;;;3.28;2.13;;;;;;;9.03;71.83;98922.13;5012626;28;20088;-73
2021/11/28 05:11:21;;;;;;;5.00;2.28;;;;;;;8.99;71.65;98922.38;5012698;28;20096;-61
2021/11/28 05:13:48;;;;;;;2.50;2.30;;;;;;;8.97;71.54;98908.56;5012801;28;20046;-61
2021/11/28 05:16:14;;;;;;;2.40;2.20;;;;;;;8.95;71.61;98910.50;5012998;28;20109;-61
2021/11/28 05:18:41;;;;;;;4.35;2.38;;;;;;;8.91;71.37;98906.47;5012242;28;20053;-61
2021/11/28 05:21:13;;;;;;;2.25;2.05;;;;;;;8.86;71.17;98910.38;5012848;28;20057;-61
2021/11/28 05:23:40;;;;;;;1.90;1.70;;;;;;;8.79;71.17;98913.50;5012200;28;20050;-61
2021/11/28 05:26:06;;;;;;;1.58;1.48;;;;;;;8.73;70.93;98918.38;5012435;28;20104;-62
2021/11/28 05:28:34;;;;;;;2.42;1.52;;;;;;;8.67;70.75;98917.06;5012283;28;20053;-61
2021/11/28 05:31:00;;;;;;;2.00;1.80;;;;;;;8.65;70.62;98921.59;5011999;28;20042;-61
2021/11/28 05:33:28;;;;;;;1.63;1.50;;;;;;;8.62;70.50;98922.66;5012351;28;20104;-61
2021/11/28 05:35:55;;;;;;;2.10;1.75;;;;;;;8.61;70.31;98926.22;5012228;28;20049;-62
2021/11/28 05:38:21;;;;;;;1.65;1.55;;;;;;;8.59;70.15;98930.72;5012157;28;20042;-66
2021/11/28 05:40:48;;;;;;;1.90;1.75;;;;;;;8.60;69.99;98921.94;5012125;28;20045;-61
2021/11/28 05:43:15;;;;;;;2.47;2.28;;;;;;;8.61;69.85;98921.00;5012149;28;20128;-73
2021/11/28 05:45:42;;;;;;;1.92;1.67;;;;;;;8.58;69.73;98921.25;5011918;28;20046;-71
2021/11/28 05:48:09;;;;;;;7.43;1.95;;;;;;;8.55;69.81;98923.25;5011043;28;20050;-69
2021/11/28 05:50:35;;;;;;;1.75;1.60;;;;;;;8.50;69.72;98926.22;5011893;28;20042;-62
2021/11/28 05:53:02;;;;;;;2.03;1.83;;;;;;;8.46;69.56;98924.81;5012101;28;20068;-61
2021/11/28 05:55:29;;;;;;;5.93;4.68;;;;;;;8.44;69.33;98924.06;5012281;28;20046;-62
2021/11/28 05:57:56;;;;;;;15.88;10.80;;;;;;;8.37;69.54;98926.31;5011561;28;20046;-61
2021/11/28 06:00:26;;;;;;;3.47;3.15;;;;;;;8.31;69.50;98930.22;5011735;28;20046;-65
2021/11/28 06:02:54;;;;;;;2.88;2.60;;;;;;;8.28;69.19;98929.63;5011568;28;20508;-61
2021/11/28 06:05:27;;;;;;;2.30;1.95;;;;;;;8.27;69.11;98938.41;5011453;28;20045;-62
2021/11/28 06:07:56;;;;;;;2.83;2.53;;;;;;;8.25;69.05;98953.38;5011521;28;20053;-74
2021/11/28 06:10:22;;;;;;;3.15;2.67;;;;;;;8.27;69.05;98949.69;5011690;28;20041;-68
2021/11/28 06:12:49;;;;;;;7.20;3.47;;;;;;;8.29;68.85;98952.19;5011247;28;20490;-61
2021/11/28 06:15:16;;;;;;;6.13;3.15;;;;;;;8.28;68.81;98959.19;5011614;28;20491;-74
2021/11/28 06:17:42;;;;;;;13.48;3.22;;;;;;;8.24;69.03;98960.38;5011471;28;20097;-67
2021/11/28 06:20:09;;;;;;;6.38;2.75;;;;;;;8.21;69.04;98957.16;5011486;28;20057;-61
2021/11/28 06:22:37;;;;;;;3.78;2.30;;;;;;;8.21;69.08;98963.22;5011434;28;20049;-62
2021/11/28 06:25:04;;;;;;;4.35;2.85;;;;;;;8.18;69.13;98953.84;5029375;28;20540;-61
2021/11/28 06:27:51;;;;;;;5.50;2.70;;;;;;;8.13;69.27;98957.75;5030915;28;20541;-61
2021/11/28 06:30:17;;;;;;;6.15;2.28;;;;;;;8.08;69.23;98962.50;5030850;28;20050;-61
2021/11/28 06:32:44;;;;;;;4.43;2.45;;;;;;;8.06;69.20;98962.59;5027947;28;20100;-61
2021/11/28 06:35:11;;;;;;;4.75;2.30;;;;;;;8.04;69.03;98981.94;5018262;28;20054;-61
2021/11/28 06:37:38;;;;;;;7.38;3.97;;;;;;;8.01;68.89;98983.84;5011337;28;20502;-61
2021/11/28 06:40:06;;;;;;;4.90;2.97;;;;;;;8.00;68.84;98984.78;5011124;28;20042;-62
2021/11/28 06:42:32;;;;;;;4.40;2.63;;;;;;;7.95;68.78;98984.31;5010483;28;20104;-61
2021/11/28 06:44:59;;;;;;;5.60;2.53;;;;;;;7.93;68.46;98983.56;5010996;28;20045;-61
2021/11/28 06:47:44;;;;;;;3.88;2.22;;;;;;;7.90;68.55;98975.97;5024342;28;20452;-60
2021/11/28 06:50:10;;;;;;;8.50;2.75;;;;;;;7.88;68.38;98979.66;5028780;28;20057;-61
2021/11/28 06:52:37;;;;;;;2.50;2.30;;;;;;;7.90;68.34;98978.59;5010753;28;20061;-61
2021/11/28 06:55:05;;;;;;;4.75;2.53;;;;;;;7.90;68.22;98982.97;5010852;28;20045;-61
2021/11/28 06:57:32;;;;;;;3.05;2.20;;;;;;;7.90;68.12;98980.34;5010643;28;20053;-61
2021/11/28 06:59:59;;;;;;;3.75;2.78;;;;;;;7.88;68.15;98982.25;5009539;28;20053;-61
2021/11/28 07:02:26;;;;;;;2.20;1.90;;;;;;;7.90;68.03;98988.19;5017892;28;20041;-61
2021/11/28 07:04:52;;;;;;;2.63;2.30;;;;;;;7.92;68.01;98981.94;5029366;28;20608;-73
2021/11/28 07:07:19;;;;;;;2.40;1.90;;;;;;;7.94;68.00;98987.84;5018075;28;20454;-61
2021/11/28 07:09:46;;;;;;;2.38;1.92;;;;;;;7.98;67.89;98978.00;5010447;28;20089;-61
2021/11/28 07:12:12;;;;;;;3.00;2.70;;;;;;;8.01;67.83;98988.22;5010605;28;20603;-60
2021/11/28 07:14:39;;;;;;;3.50;3.00;;;;;;;8.03;67.77;98995.97;5014542;28;20057;-61
2021/11/28 07:17:06;;;;;;;3.08;2.30;;;;;;;8.06;67.71;98996.53;5017791;28;20045;-61
2021/11/28 07:19:33;;;;;;;4.00;2.88;;;;;;;8.09;67.88;99019.84;5010032;28;20049;-62
2021/11/28 07:21:59;;;;;;;4.38;3.80;;;;;;;8.20;67.70;99024.25;5010496;28;20387;-60
2021/11/28 07:24:26;;;;;;;4.72;4.03;;;;;;;8.29;67.59;99013.13;5028547;28;20041;-61
2021/11/28 07:26:53;;;;;;;4.78;3.90;;;;;;;8.55;67.15;99020.81;5029998;28;20107;-60
2021/11/28 07:29:20;;;;;;;3.72;2.78;;;;;;;8.56;67.38;99019.03;5029905;28;20050;-61
2021/11/28 07:31:47;;;;;;;3.25;2.50;;;;;;;8.54;67.58;99016.53;5010027;28;20057;-60
2021/11/28 07:34:13;;;;;;;3.17;2.65;;;;;;;8.52;68.03;99028.06;5010226;28;20073;-61
2021/11/28 07:36:41;;;;;;;3.35;2.60;;;;;;;8.56;68.19;99025.09;5028210;28;20485;-61
2021/11/28 07:39:09;;;;;;;3.22;2.55;;;;;;;8.61;68.13;99022.97;5029719;28;20049;-69
2021/11/28 07:41:37;;;;;;;3.58;2.75;;;;;;;8.72;68.11;99031.75;5029727;28;20050;-61
2021/11/28 07:44:04;;;;;;;3.38;2.72;;;;;;;8.68;68.38;99039.00;5029767;28;20076;-61
2021/11/28 07:46:30;;;;;;;4.35;3.13;;;;;;;8.67;68.55;99042.56;5017765;28;20410;-60
2021/11/28 07:48:57;;;;;;;4.65;3.33;;;;;;;8.72;68.55;99039.63;5009790;28;20078;-61
2021/11/28 07:51:24;;;;;;;5.10;4.50;;;;;;;8.73;68.64;99046.50;5009683;28;20049;-61
2021/11/28 07:53:51;;;;;;;7.65;4.50;;;;;;;8.75;68.93;99034.16;5009657;28;20050;-70
2021/11/28 07:56:20;;;;;;;10.10;5.05;;;;;;;8.75;68.88;99028.94;5009649;28;20053;-61
2021/11/28 07:58:47;;;;;;;17.75;4.93;;;;;;;8.76;69.12;99023.59;5009424;28;20053;-61
2021/11/28 08:01:14;;;;;;;9.68;4.95;;;;;;;8.87;69.18;99029.75;5009642;28;20050;-61
2021/11/28 08:03:41;;;;;;;8.15;5.22;;;;;;;8.86;69.33;99030.72;5009338;28;20096;-61
2021/11/28 08:06:09;;;;;;;11.85;5.55;;;;;;;8.83;69.69;99023.94;5009496;28;20111;-61
2021/11/28 08:08:36;;;;;;;10.45;5.28;;;;;;;8.83;69.91;99029.97;5009763;28;20100;-61
2021/11/28 08:11:03;;;;;;;9.88;6.10;;;;;;;8.80;70.09;99035.47;5009359;28;20191;-61
2021/11/28 08:13:29;;;;;;;9.32;6.53;;;;;;;8.85;70.16;99040.34;5009385;28;20092;-62
2021/11/28 08:15:56;;;;;;;10.88;7.00;;;;;;;8.83;70.36;99050.91;5009262;28;20414;-60
2021/11/28 08:18:23;;;;;;;11.30;7.13;;;;;;;8.79;70.34;99052.09;5009231;28;20052;-61
2021/11/28 08:20:51;;;;;;;13.27;6.63;;;;;;;8.82;70.40;99051.03;5008967;28;20058;-61
2021/11/28 08:23:18;;;;;;;11.82;6.95;;;;;;;8.81;70.64;99049.34;5009479;28;20042;-61
2021/11/28 08:25:44;;;;;;;12.45;7.20;;;;;;;8.77;70.68;99047.94;5009230;28;20049;-61
2021/11/28 08:28:11;;;;;;;13.23;7.00;;;;;;;8.77;70.87;99040.94;5009352;28;20464;-62
2021/11/28 08:30:40;;;;;;;17.75;7.28;;;;;;;8.73;70.93;99051.75;5018236;28;20049;-57
2021/11/28 08:33:08;;;;;;;13.73;7.15;;;;;;;8.71;71.17;99053.63;5028215;28;20049;-58
2021/11/28 08:35:35;;;;;;;11.23;6.60;;;;;;;8.76;71.22;99065.44;5027548;28;20100;-67
2021/11/28 08:38:04;;;;;;;14.70;7.40;;;;;;;8.78;71.21;99062.69;5026280;28;20144;-59
2021/11/28 08:40:31;;;;;;;13.57;7.47;;;;;;;8.83;71.28;99065.78;5009195;28;20548;-60
2021/11/28 08:42:58;;;;;;;10.60;6.32;;;;;;;8.86;71.04;99075.19;5012002;28;20118;-61
2021/11/28 08:45:25;;;;;;;10.52;6.90;;;;;;;8.83;71.23;99066.59;5028251;28;20485;-59
2021/11/28 08:47:52;;;;;;;9.68;6.55;;;;;;;8.82;71.44;99067.56;5028296;28;20045;-60
2021/11/28 08:50:19;;;;;;;12.30;7.53;;;;;;;8.85;71.37;99074.34;5027967;28;20072;-59
2021/11/28 08:52:46;;;;;;;20.60;6.85;;;;;;;8.83;71.34;99066.59;5028906;28;20042;-59
2021/11/28 08:55:14;;;;;;;11.82;7.32;;;;;;;8.83;71.47;99068.41;5014908;28;20901;-60
2021/11/28 08:57:41;;;;;;;12.52;7.72;;;;;;;8.88;71.36;99074.09;5008942;28;20092;-61
2021/11/28 09:00:09;;;;;;;12.70;6.75;;;;;;;8.92;71.43;99075.53;5009070;28;20079;-59
2021/11/28 09:02:36;;;;;;;11.40;7.13;;;;;;;8.92;71.44;99080.75;5008530;28;20042;-60
2021/11/28 09:05:05;;;;;;;14.48;7.20;;;;;;;8.97;71.34;99073.38;5008734;28;20096;-60
2021/11/28 09:07:32;;;;;;;13.05;7.82;;;;;;;8.96;71.47;99076.97;5008238;28;20127;-59
2021/11/28 09:09:59;;;;;;;12.77;7.00;;;;;;;8.98;71.39;99082.09;5009800;28;20457;-63
2021/11/28 09:12:25;;;;;;;15.02;7.32;;;;;;;8.97;71.42;99086.47;5026663;28;20045;-72
2021/11/28 09:14:52;;;;;;;12.10;7.10;;;;;;;8.96;71.70;99070.91;5025339;28;20586;-59
2021/11/28 09:17:19;;;;;;;14.20;8.07;;;;;;;9.03;71.48;99068.63;5026648;28;20042;-60
2021/11/28 09:22:22;;;;;;;12.60;9.00;;;;;;;9.08;71.79;99077.00;5028015;28;20049;-61
2021/11/28 09:24:49;;;;;;;11.40;6.97;;;;;;;9.12;71.50;99088.88;5028253;28;20041;-58
2021/11/28 09:27:20;;;;;;;11.73;7.85;;;;;;;9.11;71.76;99076.75;5029787;28;20041;-59
2021/11/28 09:29:47;;;;;;;12.13;6.88;;;;;;;9.09;71.95;99078.63;5030964;28;20051;-72
2021/11/28 09:32:16;;;;;;;8.50;6.70;;;;;;;9.05;71.84;99075.41;5028725;28;20068;-60
2021/11/28 09:34:43;;;;;;;13.55;9.77;;;;;;;9.06;72.17;99079.69;5027835;28;20049;-60
2021/11/28 09:37:11;;;;;;;12.30;8.40;;;;;;;9.09;72.01;99076.00;5030829;28;20091;-59
2021/11/28 09:39:42;;;;;;;13.27;8.57;;;;;;;9.08;72.10;99069.97;5031251;28;20482;-62
2021/11/28 09:42:12;;;;;;;14.63;8.25;;;;;;;9.05;72.21;99062.31;5028187;28;20045;-73
2021/11/28 09:44:41;;;;;;;25.42;14.23;;;;;;;9.08;72.03;99056.88;5031888;28;20045;-60
2021/11/28 09:47:09;;;;;;;34.00;21.33;;;;;;;9.08;72.11;99056.06;5031830;28;20046;-62
2021/11/28 09:49:39;;;;;;;15.07;9.65;;;;;;;9.09;72.25;99053.31;5031885;28;20556;-61
2021/11/28 09:52:11;;;;;;;9.85;7.65;;;;;;;9.14;72.15;99048.56;5031782;28;20107;-61
2021/11/28 09:54:41;;;;;;;10.43;7.50;;;;;;;9.18;72.13;99064.00;5031575;28;20543;-70
2021/11/28 09:57:12;;;;;;;10.00;7.78;;;;;;;9.13;72.08;99073.06;5031596;28;20049;-62
2021/11/28 09:59:41;;;;;;;11.30;7.07;;;;;;;9.10;72.24;99075.91;5018089;28;20042;-62
2021/11/28 10:02:07;;;;;;;8.77;6.18;;;;;;;9.18;72.08;99074.47;5011807;28;20042;-62
2021/11/28 10:04:34;;;;;;;10.52;7.90;;;;;;;9.16;71.95;99064.13;5011722;28;20142;-63
2021/11/28 10:07:02;;;;;;;10.65;7.40;;;;;;;9.18;71.73;99064.00;5019315;28;20591;-62
2021/11/28 10:09:28;;;;;;;10.23;7.60;;;;;;;9.19;72.12;99070.91;5015014;28;20049;-61
2021/11/28 10:12:30;;;;;;;18.83;13.18;;;;;;;9.09;72.49;99063.78;5014411;28;20068;-61
2021/11/28 10:15:03;;;;;;;18.60;11.95;;;;;;;9.10;72.39;99062.84;5025458;28;20444;-62
2021/11/28 10:17:33;;;;;;;16.25;10.10;;;;;;;9.11;72.41;99058.41;5026363;28;20077;-72
2021/11/28 10:20:02;;;;;;;17.30;11.35;;;;;;;9.09;72.38;99053.31;5029120;28;20061;-62
2021/11/28 10:22:29;;;;;;;14.35;9.65;;;;;;;9.07;72.42;99051.78;5029171;28;20053;-62
2021/11/28 10:25:02;;;;;;;18.35;12.43;;;;;;;9.09;72.22;99060.31;5030539;28;20049;-62
2021/11/28 10:27:40;;;;;;;17.35;11.70;;;;;;;9.07;72.56;99059.63;5022482;28;20116;-61
2021/11/28 10:30:12;;;;;;;14.13;9.38;;;;;;;8.99;72.66;99062.84;5011413;28;20069;-61
2021/11/28 10:32:44;;;;;;;28.92;15.90;;;;;;;8.94;72.87;99057.94;5011328;28;20049;-61
2021/11/28 10:35:12;;;;;;;23.52;13.13;;;;;;;8.94;72.88;99049.28;5010855;28;20490;-61
2021/11/28 10:37:42;;;;;;;23.85;12.85;;;;;;;8.87;73.16;99048.88;5010465;28;20479;-61
2021/11/28 10:40:16;;;;;;;16.83;9.95;;;;;;;9.18;72.53;99043.91;5009430;28;20050;-61
2021/11/28 10:42:45;;;;;;;14.77;8.65;;;;;;;9.32;72.19;99033.19;5011293;28;20057;-61
2021/11/28 10:45:16;;;;;;;10.63;7.47;;;;;;;9.39;71.97;99032.69;5010847;28;20038;-61
2021/11/28 10:47:52;;;;;;;9.10;6.80;;;;;;;9.38;72.07;99026.63;5010750;28;20054;-61
2021/11/28 10:50:22;;;;;;;8.90;6.40;;;;;;;9.35;72.04;99011.16;5010838;28;20046;-61
2021/11/28 10:52:52;;;;;;;8.13;7.10;;;;;;;9.41;71.83;99015.09;5011003;28;20107;-61
2021/11/28 10:55:27;;;;;;;8.45;7.15;;;;;;;9.47;71.81;99014.56;5011134;28;20099;-61
2021/11/28 10:58:12;;;;;;;9.43;6.93;;;;;;;9.37;71.94;99018.88;5010735;28;20096;-61
2021/11/28 11:01:05;;;;;;;9.45;6.75;;;;;;;9.43;71.71;99016.63;5015981;28;20140;-61
2021/11/28 11:03:39;;;;;;;9.43;6.97;;;;;;;9.36;71.96;99022.44;5030177;28;20045;-61
2021/11/28 11:06:24;;;;;;;8.75;7.05;;;;;;;9.28;72.23;99025.69;5030482;28;20480;-61
2021/11/28 11:09:11;;;;;;;9.75;7.53;;;;;;;9.38;71.83;99018.75;5030433;28;20065;-61
2021/11/28 11:11:38;;;;;;;9.40;6.53;;;;;;;9.41;71.78;99015.91;5030053;28;20053;-61
2021/11/28 11:14:05;;;;;;;11.30;7.00;;;;;;;9.43;71.86;99023.63;5030341;28;20490;-61
2021/11/28 11:16:40;;;;;;;9.73;7.50;;;;;;;9.37;72.00;99040.69;5030227;28;20410;-61
2021/11/28 11:19:31;;;;;;;10.50;7.57;;;;;;;9.31;72.20;99033.31;5028798;28;20046;-61
2021/11/28 11:22:21;;;;;;;9.25;7.22;;;;;;;9.32;72.14;99032.38;5029908;28;20049;-61
2021/11/28 11:24:51;;;;;;;10.07;7.38;;;;;;;9.37;72.16;99030.22;5030093;28;20478;-61
2021/11/28 11:27:29;;;;;;;8.77;6.75;;;;;;;9.43;72.09;99023.63;5030332;28;20050;-61
2021/11/28 11:30:00;;;;;;;12.50;8.95;;;;;;;9.58;71.60;99008.50;5030239;28;20095;-61
2021/11/28 11:32:42;;;;;;;11.43;8.75;;;;;;;9.67;71.46;99017.41;5030012;28;20050;-61
2021/11/28 11:35:14;;;;;;;8.55;6.75;;;;;;;9.67;71.39;99010.38;5026967;28;20163;-61
2021/11/28 11:37:40;;;;;;;9.93;7.55;;;;;;;9.72;71.32;99016.06;5009783;28;20054;-61
2021/11/28 11:40:10;;;;;;;11.70;8.70;;;;;;;9.79;70.95;99011.19;5010080;28;20093;-61
2021/11/28 11:42:38;;;;;;;10.25;7.68;;;;;;;9.83;70.89;99015.19;5009890;28;20096;-61
2021/11/28 11:45:08;;;;;;;10.82;8.05;;;;;;;9.89;70.76;99013.84;5009524;28;20096;-62
2021/11/28 11:47:35;;;;;;;10.90;8.52;;;;;;;10.06;70.17;99008.06;5010238;28;20595;-61
2021/11/28 11:50:03;;;;;;;14.65;10.02;;;;;;;10.30;69.72;99004.38;5009875;28;20104;-61
2021/11/28 11:52:30;;;;;;;12.13;8.40;;;;;;;10.62;68.78;99000.84;5028522;28;20057;-69